createdAt,value
2022-08-25T00:01:58.468Z,22.10
2022-08-25T00:04:26.252Z,22.10
2022-08-25T00:06:59.345Z,22.09
2022-08-25T00:09:28.397Z,22.07
2022-08-25T00:11:56.714Z,22.06
2022-08-25T00:14:26.284Z,22.03
2022-08-25T00:16:56.232Z,22.01
2022-08-25T00:19:25.274Z,21.99
2022-08-25T00:21:53.049Z,21.97
2022-08-25T00:24:21.316Z,21.96
2022-08-25T00:26:50.753Z,21.94
2022-08-25T00:29:18.465Z,21.93
2022-08-25T00:31:46.316Z,21.90
2022-08-25T00:34:16.641Z,21.88
2022-08-25T00:36:44.384Z,21.87
2022-08-25T00:39:12.408Z,21.85
2022-08-25T00:41:41.862Z,21.84
2022-08-25T00:44:11.078Z,21.83
2022-08-25T00:46:40.922Z,21.81
2022-08-25T00:49:14.679Z,21.80
2022-08-25T00:51:52.588Z,21.79
2022-08-25T00:54:23.035Z,21.78
2022-08-25T00:56:51.979Z,21.76
2022-08-25T00:59:20.619Z,21.75
2022-08-25T01:01:48.654Z,21.73
2022-08-25T01:04:16.436Z,21.71
2022-08-25T01:06:44.686Z,21.70
2022-08-25T01:09:14.840Z,21.67
2022-08-25T01:11:42.934Z,21.67
2022-08-25T01:14:11.803Z,21.64
2022-08-25T01:16:40.189Z,21.63
2022-08-25T01:19:08.916Z,21.64
2022-08-25T01:21:45.990Z,21.62
2022-08-25T01:24:17.055Z,21.60
2022-08-25T01:26:44.627Z,21.60
2022-08-25T01:29:25.662Z,21.58
2022-08-25T01:31:57.379Z,21.57
2022-08-25T01:34:25.857Z,21.55
2022-08-25T01:36:55.840Z,21.54
2022-08-25T01:39:23.416Z,21.53
2022-08-25T01:41:55.785Z,21.51
2022-08-25T01:44:23.398Z,21.49
2022-08-25T01:46:52.265Z,21.48
2022-08-25T01:49:19.872Z,21.46
2022-08-25T01:51:48.938Z,21.45
2022-08-25T01:54:17.971Z,21.42
2022-08-25T01:56:45.545Z,21.41
2022-08-25T01:59:15.543Z,21.38
2022-08-25T02:01:51.830Z,21.38
2022-08-25T02:04:29.418Z,21.36
2022-08-25T02:06:57.029Z,21.35
2022-08-25T02:09:25.976Z,21.35
2022-08-25T02:11:53.586Z,21.32
2022-08-25T02:14:21.208Z,21.31
2022-08-25T02:16:50.791Z,21.28
2022-08-25T02:19:19.370Z,21.28
2022-08-25T02:21:46.961Z,21.25
2022-08-25T02:24:14.877Z,21.23
2022-08-25T02:26:43.829Z,21.21
2022-08-25T02:29:12.439Z,21.18
2022-08-25T02:31:40.298Z,21.15
2022-08-25T02:34:08.721Z,21.13
2022-08-25T02:36:37.315Z,21.11
2022-08-25T02:39:05.777Z,21.08
2022-08-25T02:41:33.594Z,21.07
2022-08-25T02:44:03.444Z,21.06
2022-08-25T02:46:31.283Z,21.04
2022-08-25T02:48:58.943Z,21.02
2022-08-25T02:51:28.384Z,21.01
2022-08-25T02:53:57.523Z,21.00
2022-08-25T02:56:25.778Z,20.98
2022-08-25T02:58:53.312Z,20.96
2022-08-25T03:01:22.551Z,20.95
2022-08-25T03:03:57.037Z,20.93
2022-08-25T03:06:25.032Z,20.91
2022-08-25T03:08:53.130Z,20.90
2022-08-25T03:11:21.052Z,20.89
2022-08-25T03:13:50.956Z,20.89
2022-08-25T03:16:18.687Z,20.88
2022-08-25T03:18:48.240Z,20.88
2022-08-25T03:21:16.302Z,20.88
2022-08-25T03:23:45.095Z,20.88
2022-08-25T03:26:30.607Z,20.87
2022-08-25T03:28:58.165Z,20.86
2022-08-25T03:31:27.673Z,20.85
2022-08-25T03:33:56.916Z,20.84
2022-08-25T03:36:25.024Z,20.84
2022-08-25T03:38:52.803Z,20.81
2022-08-25T03:41:21.483Z,20.81
2022-08-25T03:43:49.722Z,20.80
2022-08-25T03:46:19.277Z,20.78
2022-08-25T03:48:47.061Z,20.78
2022-08-25T03:51:19.719Z,20.75
2022-08-25T03:53:47.335Z,20.73
2022-08-25T03:56:14.882Z,20.73
2022-08-25T03:58:42.416Z,20.71
2022-08-25T04:01:10.085Z,20.70
2022-08-25T04:03:37.715Z,20.69
2022-08-25T04:06:06.750Z,20.68
2022-08-25T04:08:35.736Z,20.65
2022-08-25T04:11:06.792Z,20.64
2022-08-25T04:13:34.409Z,20.63
2022-08-25T04:16:01.944Z,20.61
2022-08-25T04:18:31.032Z,20.61
2022-08-25T04:21:05.159Z,20.59
2022-08-25T04:23:32.743Z,20.57
2022-08-25T04:26:01.727Z,20.56
2022-08-25T04:28:29.609Z,20.54
2022-08-25T04:30:57.183Z,20.51
2022-08-25T04:33:24.758Z,20.49
2022-08-25T04:35:52.269Z,20.48
2022-08-25T04:38:19.880Z,20.45
2022-08-25T04:40:47.431Z,20.43
2022-08-25T04:43:16.373Z,20.41
2022-08-25T04:45:43.985Z,20.38
2022-08-25T04:48:11.588Z,20.36
2022-08-25T04:50:39.800Z,20.34
2022-08-25T04:53:07.380Z,20.32
2022-08-25T04:55:40.646Z,20.30
2022-08-25T04:58:08.294Z,20.28
2022-08-25T05:00:46.643Z,20.26
2022-08-25T05:03:14.313Z,20.26
2022-08-25T05:05:41.842Z,20.25
2022-08-25T05:08:10.082Z,20.24
2022-08-25T05:10:40.148Z,20.23
2022-08-25T05:13:09.587Z,20.22
2022-08-25T05:15:52.173Z,20.23
2022-08-25T05:18:21.631Z,20.22
2022-08-25T05:20:49.238Z,20.23
2022-08-25T05:23:17.039Z,20.24
2022-08-25T05:25:44.655Z,20.25
2022-08-25T05:28:12.508Z,20.28
2022-08-25T05:30:40.810Z,20.32
2022-08-25T05:33:08.851Z,20.35
2022-08-25T05:35:37.758Z,20.37
2022-08-25T05:38:05.969Z,20.42
2022-08-25T05:40:34.249Z,20.46
2022-08-25T05:43:03.658Z,20.50
2022-08-25T05:45:31.829Z,20.54
2022-08-25T05:47:59.462Z,20.58
2022-08-25T05:50:27.553Z,20.63
2022-08-25T05:52:56.535Z,20.69
2022-08-25T05:55:24.170Z,20.77
2022-08-25T05:57:51.992Z,20.85
2022-08-25T06:00:19.741Z,20.92
2022-08-25T06:02:48.417Z,21.00
2022-08-25T06:05:17.419Z,21.08
2022-08-25T06:07:45.003Z,21.15
2022-08-25T06:10:14.869Z,21.23
2022-08-25T06:12:44.750Z,21.30
2022-08-25T06:15:12.680Z,21.38
2022-08-25T06:17:41.550Z,21.44
2022-08-25T06:20:10.463Z,21.51
2022-08-25T06:22:39.017Z,21.58
2022-08-25T06:25:07.052Z,21.64
2022-08-25T06:27:36.109Z,21.73
2022-08-25T06:30:07.887Z,21.81
2022-08-25T06:32:36.920Z,21.88
2022-08-25T06:35:04.902Z,21.96
2022-08-25T06:37:32.532Z,22.02
2022-08-25T06:40:00.139Z,22.06
2022-08-25T06:42:28.020Z,22.11
2022-08-25T06:44:57.004Z,22.16
2022-08-25T06:47:24.572Z,22.20
2022-08-25T06:49:52.147Z,22.26
2022-08-25T06:52:19.721Z,22.36
2022-08-25T06:54:47.510Z,22.53
2022-08-25T06:57:16.833Z,22.82
2022-08-25T06:59:44.408Z,23.15
2022-08-25T07:02:13.361Z,23.49
2022-08-25T07:04:49.594Z,23.85
2022-08-25T07:07:17.317Z,24.22
2022-08-25T07:09:44.851Z,24.58
2022-08-25T07:12:12.380Z,24.89
2022-08-25T07:14:40.028Z,25.23
2022-08-25T07:17:23.590Z,25.65
2022-08-25T07:19:53.061Z,26.08
2022-08-25T07:22:25.243Z,26.46
2022-08-25T07:24:52.838Z,26.79
2022-08-25T07:27:20.462Z,27.17
2022-08-25T07:29:50.099Z,27.40
2022-08-25T07:32:17.669Z,27.74
2022-08-25T07:35:04.048Z,28.02
2022-08-25T07:37:48.135Z,28.17
2022-08-25T07:40:18.281Z,28.30
2022-08-25T07:42:46.243Z,28.51
2022-08-25T07:45:15.544Z,28.63
2022-08-25T07:47:48.221Z,28.70
2022-08-25T07:50:21.116Z,28.83
2022-08-25T07:52:53.918Z,28.85
2022-08-25T07:55:23.627Z,29.01
2022-08-25T07:57:53.999Z,29.19
2022-08-25T08:00:24.414Z,29.27
2022-08-25T08:02:52.367Z,29.21
2022-08-25T08:05:24.037Z,29.19
2022-08-25T08:07:51.767Z,29.23
2022-08-25T08:13:07.847Z,29.18
2022-08-25T08:15:35.605Z,29.30
2022-08-25T08:18:04.673Z,29.48
2022-08-25T08:20:43.079Z,29.60
2022-08-25T08:23:11.027Z,29.81
2022-08-25T08:25:38.596Z,30.09
2022-08-25T08:28:07.233Z,30.25
2022-08-25T08:30:36.477Z,30.32
2022-08-25T08:33:12.882Z,30.42
2022-08-25T08:35:42.477Z,30.53
2022-08-25T08:38:16.138Z,30.54
2022-08-25T08:41:11.516Z,30.69
2022-08-25T08:43:39.812Z,30.76
2022-08-25T08:46:08.413Z,30.87
2022-08-25T08:48:41.501Z,30.82
2022-08-25T08:51:17.483Z,30.97
2022-08-25T08:53:47.125Z,31.22
2022-08-25T08:56:16.536Z,31.40
2022-08-25T08:58:45.273Z,31.28
2022-08-25T09:01:20.077Z,31.04
2022-08-25T09:03:54.953Z,31.03
2022-08-25T09:06:29.247Z,31.11
2022-08-25T09:08:58.692Z,31.28
2022-08-25T09:11:32.027Z,31.40
2022-08-25T09:14:06.437Z,31.46
2022-08-25T09:16:57.529Z,31.46
2022-08-25T09:19:32.755Z,31.38
2022-08-25T09:22:33.982Z,31.45
2022-08-25T09:25:05.365Z,31.58
2022-08-25T09:27:40.969Z,31.72
2022-08-25T09:30:12.220Z,31.95
2022-08-25T09:32:41.629Z,32.07
2022-08-25T09:35:19.411Z,32.20
2022-08-25T09:37:58.426Z,32.40
2022-08-25T09:40:27.036Z,32.69
2022-08-25T09:42:58.052Z,32.96
2022-08-25T09:45:38.146Z,32.97
2022-08-25T09:48:21.830Z,33.10
2022-08-25T09:50:50.942Z,33.26
2022-08-25T09:53:21.868Z,33.35
2022-08-25T09:56:00.024Z,33.34
2022-08-25T09:58:28.363Z,33.20
2022-08-25T10:01:04.509Z,32.94
2022-08-25T10:03:36.464Z,32.93
2022-08-25T10:06:06.420Z,33.00
2022-08-25T10:08:39.397Z,32.95
2022-08-25T10:11:09.246Z,32.88
2022-08-25T10:13:39.722Z,33.07
2022-08-25T10:16:24.156Z,33.26
2022-08-25T10:19:06.734Z,33.39
2022-08-25T10:21:35.530Z,33.47
2022-08-25T10:24:05.946Z,33.62
2022-08-25T10:26:36.978Z,33.52
2022-08-25T10:29:11.841Z,33.56
2022-08-25T10:31:44.996Z,33.56
2022-08-25T10:34:21.553Z,33.63
2022-08-25T10:36:56.041Z,33.83
2022-08-25T10:39:36.419Z,33.76
2022-08-25T10:42:07.181Z,33.76
2022-08-25T10:44:56.647Z,33.63
2022-08-25T10:47:36.120Z,33.58
2022-08-25T10:50:05.790Z,33.58
2022-08-25T10:52:38.983Z,33.81
2022-08-25T10:55:13.893Z,34.11
2022-08-25T10:57:48.184Z,34.43
2022-08-25T11:00:17.063Z,34.19
2022-08-25T11:02:52.692Z,34.08
2022-08-25T11:05:25.035Z,34.20
2022-08-25T11:07:55.557Z,34.22
2022-08-25T11:10:27.812Z,34.25
2022-08-25T11:12:57.351Z,34.23
2022-08-25T11:15:28.800Z,34.03
2022-08-25T11:18:00.257Z,33.85
2022-08-25T11:20:37.134Z,33.84
2022-08-25T11:23:09.838Z,33.87
2022-08-25T11:25:43.282Z,33.89
2022-08-25T11:28:14.606Z,33.84
2022-08-25T11:30:43.041Z,33.75
2022-08-25T11:33:13.312Z,33.81
2022-08-25T11:35:43.513Z,33.77
2022-08-25T11:38:22.223Z,33.84
2022-08-25T11:40:55.569Z,33.69
2022-08-25T11:43:31.449Z,33.78
2022-08-25T11:46:14.986Z,33.88
2022-08-25T11:48:47.179Z,33.78
2022-08-25T11:51:30.972Z,33.63
2022-08-25T11:54:15.249Z,33.58
2022-08-25T11:56:51.140Z,33.60
2022-08-25T11:59:33.568Z,33.47
2022-08-25T12:02:01.679Z,33.46
2022-08-25T12:04:44.290Z,33.40
2022-08-25T12:07:30.752Z,33.28
2022-08-25T12:10:13.046Z,33.09
2022-08-25T12:12:57.286Z,32.83
2022-08-25T12:15:26.939Z,32.66
2022-08-25T12:18:09.418Z,32.36
2022-08-25T12:21:03.941Z,32.28
2022-08-25T12:23:32.889Z,32.10
2022-08-25T12:26:04.082Z,31.98
2022-08-25T12:28:44.598Z,32.02
2022-08-25T12:31:19.822Z,32.10
2022-08-25T12:33:55.181Z,32.26
2022-08-25T12:36:28.552Z,32.42
2022-08-25T12:39:08.934Z,32.59
2022-08-25T12:41:37.058Z,32.81
2022-08-25T12:44:18.945Z,33.06
2022-08-25T12:46:47.512Z,32.98
2022-08-25T12:49:32.193Z,32.87
2022-08-25T12:52:01.807Z,32.80
2022-08-25T12:54:38.963Z,32.88
2022-08-25T12:57:16.693Z,33.09
2022-08-25T12:59:55.102Z,33.28
2022-08-25T13:02:39.834Z,33.34
2022-08-25T13:05:34.824Z,33.36
2022-08-25T13:08:20.970Z,33.50
2022-08-25T13:10:51.511Z,33.66
2022-08-25T13:13:24.775Z,33.84
2022-08-25T13:16:00.666Z,33.96
2022-08-25T13:18:30.073Z,33.98
2022-08-25T13:21:03.822Z,33.97
2022-08-25T13:23:32.353Z,34.02
2022-08-25T13:25:59.945Z,33.99
2022-08-25T13:28:31.272Z,33.84
2022-08-25T13:31:05.822Z,33.65
2022-08-25T13:33:35.557Z,33.55
2022-08-25T13:36:21.460Z,33.52
2022-08-25T13:38:50.312Z,33.47
2022-08-25T13:41:19.316Z,33.59
2022-08-25T13:43:46.969Z,33.53
2022-08-25T13:46:19.049Z,33.58
2022-08-25T13:48:49.508Z,33.59
2022-08-25T13:51:21.543Z,33.53
2022-08-25T13:53:51.193Z,33.53
2022-08-25T13:56:27.312Z,33.62
2022-08-25T13:58:59.665Z,33.64
2022-08-25T14:01:48.874Z,33.64
2022-08-25T14:04:23.495Z,33.67
2022-08-25T14:07:05.954Z,33.69
2022-08-25T14:09:39.959Z,33.69
2022-08-25T14:12:08.812Z,33.71
2022-08-25T14:14:37.058Z,33.67
2022-08-25T14:17:22.479Z,33.58
2022-08-25T14:19:56.467Z,33.45
2022-08-25T14:22:24.221Z,33.41
2022-08-25T14:24:53.170Z,33.42
2022-08-25T14:27:20.751Z,33.46
2022-08-25T14:29:52.287Z,33.44
2022-08-25T14:32:21.757Z,33.44
2022-08-25T14:34:49.370Z,33.41
2022-08-25T14:37:18.116Z,33.35
2022-08-25T14:39:45.912Z,33.25
2022-08-25T14:42:14.410Z,33.18
2022-08-25T14:44:41.974Z,33.18
2022-08-25T14:47:09.922Z,33.13
2022-08-25T14:49:41.510Z,32.99
2022-08-25T14:52:10.387Z,32.82
2022-08-25T14:54:40.457Z,32.69
2022-08-25T14:57:08.377Z,32.59
2022-08-25T14:59:36.107Z,32.44
2022-08-25T15:02:13.047Z,32.32
2022-08-25T15:04:42.457Z,32.23
2022-08-25T15:07:30.647Z,32.17
2022-08-25T15:09:59.606Z,32.07
2022-08-25T15:12:46.456Z,31.94
2022-08-25T15:15:14.632Z,31.67
2022-08-25T15:17:44.571Z,31.47
2022-08-25T15:20:13.848Z,31.39
2022-08-25T15:22:43.728Z,31.41
2022-08-25T15:25:11.508Z,31.43
2022-08-25T15:27:39.073Z,31.32
2022-08-25T15:30:07.049Z,31.16
2022-08-25T15:32:34.835Z,31.03
2022-08-25T15:35:02.917Z,30.91
2022-08-25T15:37:33.561Z,30.81
2022-08-25T15:40:01.144Z,30.66
2022-08-25T15:42:28.965Z,30.55
2022-08-25T15:44:56.535Z,30.43
2022-08-25T15:47:25.050Z,30.36
2022-08-25T15:50:00.811Z,30.27
2022-08-25T15:52:35.061Z,30.15
2022-08-25T15:55:15.464Z,29.92
2022-08-25T15:57:43.365Z,29.74
2022-08-25T16:00:12.258Z,29.58
2022-08-25T16:02:41.294Z,29.42
2022-08-25T16:05:10.207Z,29.33
2022-08-25T16:07:38.117Z,29.18
2022-08-25T16:10:06.129Z,28.99
2022-08-25T16:12:35.450Z,28.71
2022-08-25T16:15:03.321Z,28.49
2022-08-25T16:17:30.843Z,28.25
2022-08-25T16:19:58.551Z,28.05
2022-08-25T16:22:26.685Z,27.89
2022-08-25T16:24:55.963Z,27.70
2022-08-25T16:27:24.196Z,27.53
2022-08-25T16:29:53.138Z,27.36
2022-08-25T16:32:20.909Z,27.27
2022-08-25T16:34:48.454Z,27.19
2022-08-25T16:37:15.996Z,27.13
2022-08-25T16:39:45.697Z,27.04
2022-08-25T16:42:13.999Z,26.98
2022-08-25T16:44:41.710Z,26.93
2022-08-25T16:47:10.578Z,26.88
2022-08-25T16:49:41.728Z,26.82
2022-08-25T16:52:24.886Z,26.72
2022-08-25T16:55:15.247Z,26.60
2022-08-25T16:57:45.323Z,26.49
2022-08-25T17:00:16.374Z,26.34
2022-08-25T17:02:45.382Z,26.23
2022-08-25T17:05:13.248Z,26.13
2022-08-25T17:07:41.096Z,26.03
2022-08-25T17:10:12.578Z,25.95
2022-08-25T17:12:40.655Z,25.87
2022-08-25T17:15:08.549Z,25.82
2022-08-25T17:17:37.153Z,25.77
2022-08-25T17:20:06.537Z,25.68
2022-08-25T17:22:34.114Z,25.57
2022-08-25T17:25:02.695Z,25.47
2022-08-25T17:27:34.403Z,25.38
2022-08-25T17:30:02.003Z,25.30
2022-08-25T17:32:30.385Z,25.24
2022-08-25T17:34:59.288Z,25.16
2022-08-25T17:37:28.250Z,25.09
2022-08-25T17:40:02.593Z,25.01
2022-08-25T17:42:31.611Z,24.96
2022-08-25T17:44:59.343Z,24.88
2022-08-25T17:47:27.829Z,24.83
2022-08-25T17:49:55.375Z,24.75
2022-08-25T17:52:25.077Z,24.67
2022-08-25T17:54:54.641Z,24.59
2022-08-25T17:57:26.432Z,24.49
2022-08-25T17:59:54.787Z,24.38
2022-08-25T18:02:22.325Z,24.28
2022-08-25T18:04:49.843Z,24.20
2022-08-25T18:07:17.389Z,24.13
2022-08-25T18:09:45.066Z,24.03
2022-08-25T18:12:14.037Z,23.93
2022-08-25T18:14:43.747Z,23.82
2022-08-25T18:17:14.000Z,23.69
2022-08-25T18:19:49.509Z,23.56
2022-08-25T18:22:17.112Z,23.47
2022-08-25T18:24:44.789Z,23.37
2022-08-25T18:27:13.538Z,23.30
2022-08-25T18:29:43.071Z,23.24
2022-08-25T18:32:12.440Z,23.19
2022-08-25T18:34:40.265Z,23.11
2022-08-25T18:37:21.879Z,23.00
2022-08-25T18:40:08.705Z,22.88
2022-08-25T18:42:36.705Z,22.80
2022-08-25T18:45:06.561Z,22.71
2022-08-25T18:47:34.125Z,22.63
2022-08-25T18:50:04.500Z,22.53
2022-08-25T18:52:32.842Z,22.48
2022-08-25T18:55:00.415Z,22.44
2022-08-25T18:57:28.923Z,22.42
2022-08-25T18:59:56.500Z,22.38
2022-08-25T19:02:25.450Z,22.33
2022-08-25T19:04:53.125Z,22.27
2022-08-25T19:07:20.709Z,22.23
2022-08-25T19:09:48.260Z,22.19
2022-08-25T19:12:22.679Z,22.14
2022-08-25T19:14:50.548Z,22.11
2022-08-25T19:17:18.113Z,22.09
2022-08-25T19:19:47.020Z,22.07
2022-08-25T19:22:37.917Z,22.03
2022-08-25T19:25:05.312Z,21.99
2022-08-25T19:27:33.416Z,21.95
2022-08-25T19:30:01.140Z,21.90
2022-08-25T19:32:29.515Z,21.84
2022-08-25T19:34:58.533Z,21.80
2022-08-25T19:37:27.665Z,21.76
2022-08-25T19:39:57.356Z,21.72
2022-08-25T19:42:34.987Z,21.67
2022-08-25T19:45:05.841Z,21.65
2022-08-25T19:47:33.421Z,21.64
2022-08-25T19:50:02.319Z,21.60
2022-08-25T19:52:30.362Z,21.57
2022-08-25T19:54:58.476Z,21.53
2022-08-25T19:57:28.390Z,21.51
2022-08-25T20:00:11.564Z,21.51
2022-08-25T20:02:40.467Z,21.50
2022-08-25T20:05:10.224Z,21.49
2022-08-25T20:07:37.867Z,21.47
2022-08-25T20:10:06.541Z,21.45
2022-08-25T20:12:37.536Z,21.42
2022-08-25T20:15:06.657Z,21.39
2022-08-25T20:17:34.519Z,21.36
2022-08-25T20:20:04.652Z,21.30
2022-08-25T20:22:34.232Z,21.27
2022-08-25T20:25:02.243Z,21.24
2022-08-25T20:27:33.039Z,21.23
2022-08-25T20:30:02.863Z,21.21
2022-08-25T20:32:31.378Z,21.20
2022-08-25T20:34:58.956Z,21.19
2022-08-25T20:37:26.713Z,21.17
2022-08-25T20:39:55.899Z,21.15
2022-08-25T20:42:23.467Z,21.16
2022-08-25T20:44:51.007Z,21.13
2022-08-25T20:47:20.605Z,21.10
2022-08-25T20:49:50.205Z,21.04
2022-08-25T20:52:18.727Z,21.01
2022-08-25T20:54:47.141Z,21.02
2022-08-25T20:57:19.402Z,21.05
2022-08-25T20:59:54.097Z,21.03
2022-08-25T21:02:21.886Z,21.02
2022-08-25T21:04:50.418Z,20.98
2022-08-25T21:07:18.517Z,20.95
2022-08-25T21:09:46.128Z,20.92
2022-08-25T21:12:13.638Z,20.94
2022-08-25T21:14:42.769Z,20.92
2022-08-25T21:17:12.048Z,20.92
2022-08-25T21:19:41.883Z,20.88
2022-08-25T21:22:09.511Z,20.85
2022-08-25T21:24:38.406Z,20.84
2022-08-25T21:27:06.356Z,20.84
2022-08-25T21:29:33.920Z,20.82
2022-08-25T21:32:03.285Z,20.79
2022-08-25T21:34:31.538Z,20.79
2022-08-25T21:37:00.189Z,20.80
2022-08-25T21:39:29.651Z,20.81
2022-08-25T21:41:59.892Z,20.82
2022-08-25T21:44:27.827Z,20.81
2022-08-25T21:46:55.427Z,20.78
2022-08-25T21:49:24.998Z,20.76
2022-08-25T21:52:00.422Z,20.75
2022-08-25T21:54:29.146Z,20.75
2022-08-25T21:56:59.326Z,20.75
2022-08-25T21:59:27.846Z,20.76
2022-08-25T22:01:56.239Z,20.76
2022-08-25T22:04:25.488Z,20.73
2022-08-25T22:06:53.051Z,20.71
2022-08-25T22:09:21.864Z,20.70
2022-08-25T22:11:51.712Z,20.68
2022-08-25T22:14:23.374Z,20.67
2022-08-25T22:16:51.998Z,20.68
2022-08-25T22:19:19.678Z,20.67
2022-08-25T22:21:48.523Z,20.65
2022-08-25T22:24:16.041Z,20.65
2022-08-25T22:26:47.454Z,20.64
2022-08-25T22:29:24.861Z,20.64
2022-08-25T22:31:53.350Z,20.64
2022-08-25T22:34:31.635Z,20.62
2022-08-25T22:37:01.400Z,20.60
2022-08-25T22:39:29.359Z,20.60
2022-08-25T22:41:57.152Z,20.59
2022-08-25T22:44:25.456Z,20.58
2022-08-25T22:46:53.323Z,20.56
2022-08-25T22:49:21.729Z,20.53
2022-08-25T22:51:49.954Z,20.50
2022-08-25T22:54:19.836Z,20.49
2022-08-25T22:56:47.365Z,20.47
2022-08-25T22:59:15.449Z,20.46
2022-08-25T23:01:44.904Z,20.47
2022-08-25T23:04:13.639Z,20.45
2022-08-25T23:06:41.626Z,20.44
2022-08-25T23:09:10.693Z,20.41
2022-08-25T23:11:40.286Z,20.40
2022-08-25T23:14:10.871Z,20.40
2022-08-25T23:16:38.817Z,20.39
2022-08-25T23:19:06.491Z,20.37
2022-08-25T23:21:52.626Z,20.37
2022-08-25T23:24:29.195Z,20.36
2022-08-25T23:26:59.475Z,20.34
2022-08-25T23:29:28.824Z,20.32
2022-08-25T23:31:56.947Z,20.32
2022-08-25T23:34:25.246Z,20.35
2022-08-25T23:36:52.888Z,20.36
2022-08-25T23:39:21.908Z,20.37
2022-08-25T23:41:49.812Z,20.36
2022-08-25T23:44:18.943Z,20.36
2022-08-25T23:46:47.595Z,20.33
2022-08-25T23:49:18.360Z,20.31
2022-08-25T23:51:47.017Z,20.32
2022-08-25T23:54:14.644Z,20.33
2022-08-25T23:56:51.322Z,20.33
2022-08-25T23:59:24.236Z,20.29
